WetterOnline ( http://www.wetteronline.de )

Wetter aktuell Bremen

Aktuelles Wetter: Bremerhaven (11m)

6-stündlich | Neueste Meldungen
Ortszeit Temperatur Wetter
Sa, 20.10. 8:00 8.5° C bedeckt
Sa, 20.10. 2:00 8.9° C fast wolkenlos
Fr, 19.10. 20:00 10.4° C wolkig
Fr, 19.10. 14:00 12.3° C wolkig
Fr, 19.10. 8:00 7.6° C bewölkt
Fr, 19.10. 2:00 9.0° C leicht bewölkt
Do, 18.10. 20:00 11.7° C wolkenlos
Do, 18.10. 14:00 13.6° C bewölkt
Ortszeit Temperatur Wetter
Sa, 20.10. 12:00 12.7° C wolkenlos
Sa, 20.10. 11:50 12.7° C wolkenlos
Sa, 20.10. 11:40 12.2° C fast wolkenlos
Sa, 20.10. 11:30 11.8° C wolkig
Sa, 20.10. 11:20 11.8° C wolkig
Sa, 20.10. 11:10 11.6° C bewölkt
Sa, 20.10. 11:00 10.9° C wolkig
Sa, 20.10. 10:30 9.5° C wolkig
Sa, 20.10. 10:00 9.0° C bewölkt
Sa, 20.10. 9:30 8.6° C bedeckt
Sa, 20.10. 9:00 8.4° C bedeckt
Ortszeit Relative Feuchte Sichtweite
Sa, 20.10. 8:00 80% 10 km
Sa, 20.10. 2:00 75% 10 km
Fr, 19.10. 20:00 65% 10 km
Fr, 19.10. 14:00 55% 10 km
Fr, 19.10. 8:00 88% 9 km
Fr, 19.10. 2:00 82% 10 km
Do, 18.10. 20:00 70% 10 km
Do, 18.10. 14:00 74% 10 km
Ortszeit Relative Feuchte Sichtweite
Sa, 20.10. 12:00 70% 10 km
Sa, 20.10. 11:50 70% -
Sa, 20.10. 11:40 69% -
Sa, 20.10. 11:30 70% 10 km
Sa, 20.10. 11:20 70% -
Sa, 20.10. 11:10 70% -
Sa, 20.10. 11:00 73% 9 km
Sa, 20.10. 10:30 78% 10 km
Sa, 20.10. 10:00 78% 10 km
Sa, 20.10. 9:30 80% 10 km
Sa, 20.10. 9:00 80% 10 km
Ortszeit Niederschlagsmenge Niederschlagsart
Sa, 20.10. 8:00 0.0 l/m2 in 12 Std. -
Sa, 20.10. 2:00 0.0 l/m2 in 6 Std. -
Fr, 19.10. 20:00 0.0 l/m2 in 12 Std. -
Fr, 19.10. 14:00 0.0 l/m2 in 6 Std. -
Fr, 19.10. 8:00 0.0 l/m2 in 12 Std. -
Fr, 19.10. 2:00 0.0 l/m2 in 6 Std. -
Do, 18.10. 20:00 0.4 l/m2 in 12 Std. -
Do, 18.10. 14:00 0.4 l/m2 in 6 Std. Regen
Ortszeit Niederschlagsmenge Niederschlagsart
Sa, 20.10. 12:00 0.0 l/m2 in 1 Std. -
Sa, 20.10. 11:50 keine Meldung -
Sa, 20.10. 11:40 keine Meldung -
Sa, 20.10. 11:30 0.0 l/m2 in 1 Std. -
Sa, 20.10. 11:20 keine Meldung -
Sa, 20.10. 11:10 keine Meldung -
Sa, 20.10. 11:00 0.0 l/m2 in 1 Std. -
Sa, 20.10. 10:30 0.0 l/m2 in 1 Std. -
Sa, 20.10. 10:00 0.0 l/m2 in 1 Std. -
Sa, 20.10. 9:30 0.0 l/m2 in 1 Std. -
Sa, 20.10. 9:00 0.0 l/m2 in 1 Std. -
Ortszeit Stärke Spitze Richtung
km/h Bft. km/h Grad Sektor
Sa, 20.10. 8:00 13 3 19 220° SW
Sa, 20.10. 2:00 9 2 11 190° S
Fr, 19.10. 20:00 7 2 18 30° NO
Fr, 19.10. 14:00 7 2 18 60° NO
Fr, 19.10. 8:00 7 2 14 60° NO
Fr, 19.10. 2:00 9 2 22 40° NO
Do, 18.10. 20:00 14 3 32 360° N
Do, 18.10. 14:00 19 3 35 30° NO
Ortszeit Stärke Spitze Richtung
km/h Bft. km/h Grad Sektor
Sa, 20.10. 12:00 19 3 28 240° SW
Sa, 20.10. 11:50 19 3 - 240° SW
Sa, 20.10. 11:40 20 4 - 230° SW
Sa, 20.10. 11:30 20 4 28 220° SW
Sa, 20.10. 11:20 20 4 - 220° SW
Sa, 20.10. 11:10 20 4 - 220° SW
Sa, 20.10. 11:00 19 3 24 220° SW
Sa, 20.10. 10:30 20 4 24 210° SW
Sa, 20.10. 10:00 19 3 22 200° S
Sa, 20.10. 9:30 17 3 20 200° S
Sa, 20.10. 9:00 14 3 22 200° S
Ortszeit Untergrenze Bedeckung Gattung
total tief tief mittel hoch
Sa, 20.10. 8:00 1080 m 8/8 8/8 - - -
Sa, 20.10. 2:00 1350 m 1/8 1/8 - - -
Fr, 19.10. 20:00 8100 m 8/8 0/8 - - -
Fr, 19.10. 14:00 10500 m 8/8 0/8 - - -
Fr, 19.10. 8:00 1020 m 7/8 7/8 - - -
Fr, 19.10. 2:00 1020 m 3/8 3/8 - - -
Do, 18.10. 20:00 - 0/8 0/8 - - -
Do, 18.10. 14:00 540 m 8/8 7/8 - - -
Ortszeit Bedeckungsgrad in Achtel und Wolkenuntergrenze
Sa, 20.10. 12:00 keine Wolken
Sa, 20.10. 11:50 keine Wolken
Sa, 20.10. 11:40 2(8100m)
Sa, 20.10. 11:30 4(930m) 7(8100m)
Sa, 20.10. 11:20 4(930m) 7(8100m)
Sa, 20.10. 11:10 7(930m) 7(8400m)
Sa, 20.10. 11:00 4(930m) 5(1800m) 5(8100m)
Sa, 20.10. 10:30 2(1800m) 6(8400m)
Sa, 20.10. 10:00 6(1050m) 7(1800m) 8(8700m)
Sa, 20.10. 9:30 5(1110m) 7(1320m) 8(1500m)
Sa, 20.10. 9:00 6(840m) 7(1380m) 8(1500m)
Ortszeit Luftdruck NN (hPa) Tendenz (hPa in 3 Std.)
Sa, 20.10. 8:00 1029 + 1,1
Sa, 20.10. 2:00 1028 + 0,2
Fr, 19.10. 20:00 1027 + 0,8
Fr, 19.10. 14:00 1027 - 0,7
Fr, 19.10. 8:00 1027 + 0,3
Fr, 19.10. 2:00 1027 - 0,2
Do, 18.10. 20:00 1026 + 1,3
Do, 18.10. 14:00 1025 + 1,0
Ortszeit Luftdruck NN (hPa) Tendenz (hPa in 3 Std.)
Sa, 20.10. 12:00 1030 + 0,6
Sa, 20.10. 11:50 1030 keine Meldung
Sa, 20.10. 11:40 1030 keine Meldung
Sa, 20.10. 11:30 1030 + 0,6
Sa, 20.10. 11:20 1030 keine Meldung
Sa, 20.10. 11:10 1029 keine Meldung
Sa, 20.10. 11:00 1030 + 0,9
Sa, 20.10. 10:30 1029 + 0,7
Sa, 20.10. 10:00 1029 + 0,9
Sa, 20.10. 9:30 1029 + 0,9
Sa, 20.10. 9:00 1029 + 0,6
Ortszeit Schneehöhe (cm)
Sa, 20.10. 8:00 0
Sa, 20.10. 2:00 0
Fr, 19.10. 20:00 0
Fr, 19.10. 14:00 0
Fr, 19.10. 8:00 0
Fr, 19.10. 2:00 0
Do, 18.10. 20:00 0
Do, 18.10. 14:00 0
Ortszeit Schneehöhe (cm)
Sa, 20.10. 12:00 0
Sa, 20.10. 11:50 0
Sa, 20.10. 11:40 0
Sa, 20.10. 11:30 0
Sa, 20.10. 11:20 0
Sa, 20.10. 11:10 0
Sa, 20.10. 11:00 0
Sa, 20.10. 10:30 0
Sa, 20.10. 10:00 0
Sa, 20.10. 9:30 0
Sa, 20.10. 9:00 0
Link zu dieser Seite / Seite empfehlen

Das Wetter in ...